Time;durP1;ratioP1;P1;durP2;ratioP2;P2;SDS_P1;SDS_P2;PMS_P1;PMS_P2;Temp;Humidity;BMP_temperature;BMP_pressure;BME280_temperature;BME280_humidity;BME280_pressure;Samples;Min_cycle;Max_cycle;Signal;HPM_P1;HPM_P2
2023/07/27 00:00:39;;;;;;;4.13;2.63;;;17.70;85.20;;;;;;5008701;27;87438;-77
2023/07/27 00:03:05;;;;;;;5.53;2.88;;;17.60;84.90;;;;;;5008116;28;89409;-77
2023/07/27 00:05:31;;;;;;;6.50;2.67;;;17.60;85.40;;;;;;5005726;28;89935;-76
2023/07/27 00:07:56;;;;;;;6.25;2.55;;;17.60;85.20;;;;;;5006880;28;89226;-77
2023/07/27 00:10:24;;;;;;;4.93;2.80;;;17.60;84.70;;;;;;5007197;28;87192;-77
2023/07/27 00:12:50;;;;;;;5.80;2.55;;;17.60;85.50;;;;;;5004925;28;87625;-77
2023/07/27 00:15:15;;;;;;;6.60;2.60;;;17.70;86.40;;;;;;5007983;28;88832;-76
2023/07/27 00:17:41;;;;;;;6.50;2.95;;;17.70;86.80;;;;;;5007148;28;87712;-77
2023/07/27 00:20:07;;;;;;;4.68;2.53;;;17.70;87.50;;;;;;5007034;27;87578;-77
2023/07/27 00:22:32;;;;;;;4.70;2.63;;;17.70;87.10;;;;;;5007452;27;88182;-77
2023/07/27 00:24:58;;;;;;;4.30;2.28;;;17.70;87.20;;;;;;5007583;28;88256;-77
2023/07/27 00:27:24;;;;;;;7.13;3.10;;;17.70;88.90;;;;;;4989425;28;90446;-77
2023/07/27 00:29:49;;;;;;;5.20;2.80;;;17.70;90.00;;;;;;5006035;27;88642;-76
2023/07/27 00:32:15;;;;;;;5.72;2.50;;;17.70;89.80;;;;;;5008139;28;87789;-76
2023/07/27 00:34:40;;;;;;;6.32;2.60;;;17.70;90.10;;;;;;5006524;28;88558;-77
2023/07/27 00:37:06;;;;;;;7.88;3.00;;;17.60;88.60;;;;;;5006366;28;88308;-77
2023/07/27 00:39:33;;;;;;;6.22;3.03;;;17.60;89.60;;;;;;5007155;28;87526;-76
2023/07/27 00:41:58;;;;;;;8.68;2.80;;;17.60;90.20;;;;;;5007915;28;87842;-77
2023/07/27 00:44:24;;;;;;;9.20;2.78;;;17.60;90.10;;;;;;5006045;28;88883;-76
2023/07/27 00:46:51;;;;;;;3.55;2.47;;;17.50;90.00;;;;;;5008019;28;88635;-77
2023/07/27 00:49:16;;;;;;;5.38;2.58;;;17.50;90.20;;;;;;5005551;28;87758;-76
2023/07/27 00:51:44;;;;;;;5.25;2.53;;;17.40;90.30;;;;;;5006340;28;87691;-77
2023/07/27 00:54:11;;;;;;;6.40;2.53;;;17.40;90.00;;;;;;4996154;28;92701;-77
2023/07/27 00:56:38;;;;;;;5.25;2.63;;;17.40;90.50;;;;;;5007636;28;89694;-76
2023/07/27 00:59:05;;;;;;;7.05;2.45;;;17.30;90.50;;;;;;5007159;28;87754;-77
2023/07/27 01:01:30;;;;;;;6.47;2.95;;;17.30;90.50;;;;;;5007669;28;87667;-77
2023/07/27 01:03:57;;;;;;;5.03;2.38;;;17.20;90.70;;;;;;5006373;28;89224;-76
2023/07/27 01:06:24;;;;;;;5.40;2.17;;;17.20;90.80;;;;;;5006258;28;88722;-76
2023/07/27 01:08:50;;;;;;;4.72;2.47;;;17.10;91.10;;;;;;5007675;28;87813;-76
2023/07/27 01:11:33;;;;;;;7.95;2.40;;;17.10;90.90;;;;;;5006421;27;87389;-76
2023/07/27 01:14:03;;;;;;;5.15;2.22;;;17.10;91.00;;;;;;5006602;28;88747;-77
2023/07/27 01:16:47;;;;;;;4.15;2.10;;;17.00;91.50;;;;;;5003989;28;89013;-77
2023/07/27 01:19:41;;;;;;;6.10;2.33;;;16.90;91.50;;;;;;5005813;28;88686;-76
2023/07/27 01:22:41;;;;;;;5.40;2.72;;;16.90;91.70;;;;;;5001997;28;87955;-77
2023/07/27 01:25:16;;;;;;;9.77;3.15;;;16.90;91.70;;;;;;5005823;28;89283;-76
2023/07/27 01:28:03;;;;;;;7.43;2.80;;;16.80;92.40;;;;;;5005909;28;88020;-76
2023/07/27 01:30:28;;;;;;;3.30;2.28;;;16.80;92.40;;;;;;5006288;28;87516;-77
2023/07/27 01:33:10;;;;;;;4.28;2.50;;;16.70;92.40;;;;;;5008935;27;87547;-77
2023/07/27 01:35:50;;;;;;;6.97;2.90;;;16.70;92.80;;;;;;5006085;28;88095;-77
2023/07/27 01:38:16;;;;;;;7.65;2.63;;;16.70;92.80;;;;;;5006152;28;89113;-77
2023/07/27 01:40:44;;;;;;;6.47;2.65;;;16.70;92.80;;;;;;5005401;28;87862;-76
2023/07/27 01:43:11;;;;;;;5.07;2.70;;;16.60;92.90;;;;;;5006597;27;87509;-77
2023/07/27 01:45:39;;;;;;;4.50;2.42;;;16.60;93.20;;;;;;5005221;28;90276;-77
2023/07/27 01:48:07;;;;;;;5.25;2.60;;;16.70;93.20;;;;;;5004698;28;89699;-77
2023/07/27 01:50:33;;;;;;;5.32;2.67;;;16.60;93.20;;;;;;5004455;28;87508;-77
2023/07/27 01:53:00;;;;;;;3.50;2.08;;;16.60;93.30;;;;;;5005323;28;87798;-77
2023/07/27 01:55:27;;;;;;;4.60;2.90;;;16.60;93.50;;;;;;5004676;28;88582;-77
2023/07/27 01:57:54;;;;;;;6.82;2.67;;;16.60;93.60;;;;;;5005556;28;88311;-77
2023/07/27 02:00:20;;;;;;;4.45;2.33;;;16.60;93.50;;;;;;5008221;28;87516;-77
2023/07/27 02:02:46;;;;;;;6.30;2.53;;;16.60;93.70;;;;;;5004266;28;93147;-77
2023/07/27 02:05:12;;;;;;;5.32;2.38;;;16.60;93.70;;;;;;5003104;28;87666;-77
2023/07/27 02:07:38;;;;;;;9.18;3.22;;;16.60;93.80;;;;;;5006405;28;88703;-77
2023/07/27 02:10:03;;;;;;;5.82;2.95;;;16.60;94.10;;;;;;5005052;28;88480;-77
2023/07/27 02:12:43;;;;;;;5.88;2.67;;;16.60;93.80;;;;;;5007740;28;87755;-77
2023/07/27 02:15:13;;;;;;;7.10;2.50;;;16.60;94.00;;;;;;5005164;28;92866;-76
2023/07/27 02:17:45;;;;;;;5.35;2.38;;;16.60;94.20;;;;;;4986810;28;90274;-77
2023/07/27 02:20:14;;;;;;;3.78;3.08;;;16.60;94.20;;;;;;5006161;28;87666;-77
2023/07/27 02:22:44;;;;;;;6.55;2.90;;;16.60;94.40;;;;;;5004710;28;87897;-77
2023/07/27 02:25:10;;;;;;;8.15;3.08;;;16.50;94.30;;;;;;5003845;28;88664;-77
2023/07/27 02:27:36;;;;;;;6.65;2.83;;;16.50;94.60;;;;;;5006027;28;88533;-77
2023/07/27 02:30:02;;;;;;;7.25;3.28;;;16.40;94.90;;;;;;5004715;28;87844;-77
2023/07/27 02:32:28;;;;;;;6.25;3.72;;;16.40;95.00;;;;;;5003588;28;90966;-77
2023/07/27 02:34:54;;;;;;;5.38;3.40;;;16.30;95.30;;;;;;5003082;28;89607;-77
2023/07/27 02:37:19;;;;;;;8.48;2.97;;;16.30;95.40;;;;;;5002476;28;89030;-77
2023/07/27 02:39:45;;;;;;;6.38;3.35;;;16.30;95.50;;;;;;5003830;28;87181;-77
2023/07/27 02:42:11;;;;;;;7.60;4.03;;;16.30;95.60;;;;;;5005014;28;88423;-77
2023/07/27 02:44:36;;;;;;;10.88;3.25;;;16.30;95.70;;;;;;5004286;27;87657;-77
2023/07/27 02:47:02;;;;;;;8.57;3.55;;;16.20;95.80;;;;;;4986114;28;91245;-77
2023/07/27 02:49:27;;;;;;;9.02;4.40;;;16.20;96.00;;;;;;5003259;28;87513;-76
2023/07/27 02:51:53;;;;;;;6.63;4.18;;;16.20;96.30;;;;;;5003049;28;87448;-77
2023/07/27 02:54:18;;;;;;;6.60;3.90;;;16.20;96.30;;;;;;5001640;28;91024;-77
2023/07/27 02:56:44;;;;;;;5.88;3.70;;;16.20;96.40;;;;;;4985057;28;90395;-77
2023/07/27 02:59:10;;;;;;;7.68;3.97;;;16.10;96.50;;;;;;5003232;28;88612;-77
2023/07/27 03:01:36;;;;;;;10.85;4.72;;;16.10;96.60;;;;;;5002955;28;93323;-77
2023/07/27 03:04:02;;;;;;;7.05;3.88;;;16.10;96.70;;;;;;5002929;28;88981;-76
2023/07/27 03:06:28;;;;;;;7.50;4.35;;;16.00;96.90;;;;;;5004784;28;88914;-76
2023/07/27 03:08:53;;;;;;;8.38;3.83;;;16.00;97.00;;;;;;5005839;27;87828;-77
2023/07/27 03:11:19;;;;;;;6.20;3.90;;;15.90;97.20;;;;;;5004080;28;87606;-77
2023/07/27 03:13:44;;;;;;;7.57;3.75;;;15.90;97.30;;;;;;5002563;28;88721;-76
2023/07/27 03:16:10;;;;;;;9.43;3.72;;;15.90;97.40;;;;;;5004584;28;87454;-77
2023/07/27 03:18:36;;;;;;;6.07;3.53;;;15.80;97.60;;;;;;5004525;28;87657;-76
2023/07/27 03:21:03;;;;;;;8.82;4.25;;;15.80;97.80;;;;;;5006029;28;87855;-76
2023/07/27 03:23:29;;;;;;;8.30;3.45;;;15.80;97.90;;;;;;4985144;28;92934;-76
2023/07/27 03:25:55;;;;;;;4.78;3.22;;;15.80;98.00;;;;;;5003335;28;89244;-77
2023/07/27 03:28:20;;;;;;;7.20;3.33;;;15.70;98.20;;;;;;5004893;28;87564;-77
2023/07/27 03:30:46;;;;;;;9.30;3.75;;;15.60;98.30;;;;;;5004107;28;87931;-77
2023/07/27 03:33:11;;;;;;;6.38;3.25;;;15.60;98.70;;;;;;5005639;28;89055;-77
2023/07/27 03:35:37;;;;;;;9.68;3.83;;;15.50;98.80;;;;;;5005942;28;89023;-76
2023/07/27 03:38:03;;;;;;;6.50;3.33;;;15.50;99.30;;;;;;4994974;28;87922;-76
2023/07/27 03:40:29;;;;;;;8.63;3.53;;;15.50;98.90;;;;;;5003475;28;87313;-77
2023/07/27 03:42:54;;;;;;;7.78;3.22;;;15.50;99.20;;;;;;5006120;28;87635;-76
2023/07/27 03:45:20;;;;;;;5.20;2.95;;;15.50;98.90;;;;;;5005925;28;88246;-76
2023/07/27 03:47:46;;;;;;;5.93;3.28;;;15.50;99.00;;;;;;5003906;28;89033;-77
2023/07/27 03:50:12;;;;;;;6.43;3.30;;;15.50;99.00;;;;;;5004401;28;87912;-77
2023/07/27 03:52:38;;;;;;;7.00;3.10;;;15.50;99.30;;;;;;5021061;27;91090;-78
2023/07/27 03:55:04;;;;;;;5.32;3.05;;;15.40;99.20;;;;;;5004312;28;88640;-77
2023/07/27 03:57:30;;;;;;;7.65;3.00;;;15.50;99.30;;;;;;5004836;28;87614;-77
2023/07/27 03:59:57;;;;;;;5.65;3.20;;;15.50;99.40;;;;;;5006877;28;91422;-77
2023/07/27 04:02:24;;;;;;;5.25;3.25;;;15.50;99.40;;;;;;5007048;28;91156;-77
2023/07/27 04:04:49;;;;;;;5.25;2.90;;;15.50;99.70;;;;;;5009040;27;88371;-77
2023/07/27 04:07:15;;;;;;;8.50;3.08;;;15.50;99.50;;;;;;5007218;28;87179;-77
2023/07/27 04:09:43;;;;;;;6.82;2.97;;;15.50;99.50;;;;;;5008518;27;87695;-77
2023/07/27 04:12:09;;;;;;;9.68;2.63;;;15.60;99.50;;;;;;4991927;28;92961;-77
2023/07/27 04:14:35;;;;;;;4.93;3.20;;;15.60;99.60;;;;;;5008031;28;89820;-77
2023/07/27 04:17:00;;;;;;;6.28;3.28;;;15.60;99.70;;;;;;5007170;28;94465;-76
2023/07/27 04:19:26;;;;;;;8.57;3.00;;;15.60;99.90;;;;;;5009180;28;87825;-78
2023/07/27 04:21:51;;;;;;;5.55;2.88;;;15.60;99.90;;;;;;5012385;27;89165;-78
2023/07/27 04:24:17;;;;;;;6.03;2.78;;;15.60;99.90;;;;;;5015033;28;87506;-79
2023/07/27 04:26:43;;;;;;;5.80;3.33;;;15.60;99.90;;;;;;5020870;27;87955;-78
2023/07/27 04:29:08;;;;;;;6.85;3.22;;;15.60;99.90;;;;;;5006543;28;88130;-78
2023/07/27 04:31:34;;;;;;;4.45;2.97;;;15.70;99.90;;;;;;5007002;28;87961;-78
2023/07/27 04:33:59;;;;;;;9.18;3.38;;;15.70;99.90;;;;;;5008282;28;88271;-78
2023/07/27 04:36:25;;;;;;;9.85;3.35;;;15.70;99.90;;;;;;5006572;28;88890;-78
2023/07/27 04:38:51;;;;;;;5.35;3.00;;;15.70;99.90;;;;;;5006359;28;88905;-77
2023/07/27 04:41:16;;;;;;;5.35;3.47;;;15.70;99.90;;;;;;5006333;28;88131;-78
2023/07/27 04:43:42;;;;;;;4.28;2.80;;;15.70;99.90;;;;;;5005388;28;87867;-78
2023/07/27 04:46:07;;;;;;;5.38;2.83;;;15.70;99.90;;;;;;5005991;28;87619;-78
2023/07/27 04:48:33;;;;;;;6.75;3.22;;;15.70;99.90;;;;;;5006078;28;87826;-78
2023/07/27 04:50:59;;;;;;;5.63;2.80;;;15.70;99.90;;;;;;5005819;28;88614;-77
2023/07/27 04:53:24;;;;;;;9.95;4.03;;;15.70;99.90;;;;;;5005127;27;88213;-77
2023/07/27 04:55:50;;;;;;;6.30;3.42;;;15.70;99.90;;;;;;5006217;28;87232;-77
2023/07/27 04:58:15;;;;;;;4.97;3.20;;;15.70;99.90;;;;;;5005707;28;87963;-78
2023/07/27 05:00:41;;;;;;;5.45;3.10;;;15.80;99.90;;;;;;4985143;28;92648;-77
2023/07/27 05:03:07;;;;;;;6.63;3.30;;;15.80;99.90;;;;;;5007745;28;89243;-77
2023/07/27 05:05:32;;;;;;;4.95;3.17;;;15.70;99.90;;;;;;5004279;28;87483;-78
2023/07/27 05:07:58;;;;;;;5.47;3.20;;;15.80;99.90;;;;;;5006541;28;87777;-78
2023/07/27 05:10:23;;;;;;;5.78;2.83;;;15.70;99.90;;;;;;5006308;28;88059;-78
2023/07/27 05:12:50;;;;;;;6.13;3.03;;;15.80;99.90;;;;;;5005586;28;88332;-77
2023/07/27 05:15:15;;;;;;;5.55;2.55;;;15.80;99.90;;;;;;5004729;28;87826;-77
2023/07/27 05:17:41;;;;;;;4.78;3.03;;;15.80;99.90;;;;;;5005219;28;86787;-77
2023/07/27 05:20:08;;;;;;;3.63;2.88;;;15.80;99.90;;;;;;4990478;28;92124;-78
2023/07/27 05:22:34;;;;;;;3.55;2.58;;;15.80;99.90;;;;;;4990067;28;91441;-77
2023/07/27 05:24:59;;;;;;;4.85;2.83;;;15.80;99.90;;;;;;4988021;28;88868;-77
2023/07/27 05:27:25;;;;;;;4.78;2.72;;;15.90;99.90;;;;;;5009772;28;87907;-77
2023/07/27 05:29:51;;;;;;;10.20;2.92;;;15.90;99.90;;;;;;5008113;27;88306;-77
2023/07/27 05:32:16;;;;;;;6.78;2.97;;;16.00;99.90;;;;;;4991351;28;91553;-80
2023/07/27 05:34:42;;;;;;;4.32;2.70;;;16.00;99.90;;;;;;5008521;28;87611;-78
2023/07/27 05:37:07;;;;;;;4.70;2.72;;;16.00;99.90;;;;;;5005881;27;87182;-78
2023/07/27 05:39:33;;;;;;;4.38;3.10;;;16.00;99.90;;;;;;5009167;28;88262;-78
2023/07/27 05:41:58;;;;;;;6.40;3.28;;;16.10;99.90;;;;;;5011486;28;88078;-77
2023/07/27 05:44:24;;;;;;;5.80;2.83;;;16.10;99.90;;;;;;5018751;27;87528;-77
2023/07/27 05:46:56;;;;;;;5.03;3.17;;;16.10;99.90;;;;;;4995345;28;90170;-78
2023/07/27 05:49:22;;;;;;;5.28;3.40;;;16.10;99.90;;;;;;5012215;28;89821;-78
2023/07/27 05:51:47;;;;;;;5.85;2.92;;;16.20;99.90;;;;;;5015255;28;89891;-78
2023/07/27 05:54:13;;;;;;;4.55;3.38;;;16.20;99.90;;;;;;5015702;28;87596;-77
2023/07/27 05:56:40;;;;;;;3.17;2.83;;;16.20;99.90;;;;;;4995866;28;89171;-77
2023/07/27 05:59:06;;;;;;;4.05;3.17;;;16.20;99.90;;;;;;5011626;28;89211;-77
2023/07/27 06:01:32;;;;;;;5.03;2.95;;;16.30;99.90;;;;;;4990796;28;90145;-77
2023/07/27 06:04:00;;;;;;;6.72;2.90;;;16.30;99.90;;;;;;5010542;28;87087;-77
2023/07/27 06:06:25;;;;;;;6.03;3.30;;;16.40;99.90;;;;;;5008300;28;87437;-77
2023/07/27 06:08:53;;;;;;;3.90;2.83;;;16.40;99.90;;;;;;4991042;28;91461;-77
2023/07/27 06:11:19;;;;;;;4.72;3.40;;;16.40;99.90;;;;;;5021997;27;89964;-78
2023/07/27 06:13:46;;;;;;;4.88;2.83;;;16.50;99.90;;;;;;5007356;27;88504;-77
2023/07/27 06:16:12;;;;;;;5.45;3.25;;;16.50;99.90;;;;;;5007662;28;87570;-77
2023/07/27 06:18:37;;;;;;;5.10;2.92;;;16.60;99.90;;;;;;5004689;27;87829;-77
2023/07/27 06:21:03;;;;;;;4.70;2.78;;;16.60;99.90;;;;;;4994431;28;90203;-78
2023/07/27 06:23:29;;;;;;;5.35;2.85;;;16.60;99.90;;;;;;5011491;28;87545;-78
2023/07/27 06:25:54;;;;;;;4.95;3.03;;;16.60;99.90;;;;;;5011098;27;87569;-77
2023/07/27 06:28:20;;;;;;;3.45;2.83;;;16.70;99.90;;;;;;5007267;28;88636;-77
2023/07/27 06:30:45;;;;;;;3.95;3.10;;;16.80;99.90;;;;;;5009150;28;88298;-77
2023/07/27 06:33:11;;;;;;;4.22;2.83;;;16.80;99.90;;;;;;5005360;28;87801;-77
2023/07/27 06:35:37;;;;;;;3.92;2.67;;;16.80;99.90;;;;;;5005488;28;87679;-77
2023/07/27 06:38:02;;;;;;;5.85;3.35;;;16.90;99.90;;;;;;5006107;28;89482;-78
2023/07/27 06:40:28;;;;;;;4.38;2.83;;;17.00;99.90;;;;;;5003987;28;89707;-77
2023/07/27 06:42:54;;;;;;;10.20;2.80;;;17.00;99.90;;;;;;5006876;28;87450;-77
2023/07/27 06:45:20;;;;;;;5.88;2.88;;;17.00;99.90;;;;;;4996302;28;89031;-79
2023/07/27 06:47:46;;;;;;;7.00;2.40;;;17.10;99.90;;;;;;4993508;28;91892;-80
2023/07/27 06:50:11;;;;;;;5.68;2.83;;;17.10;99.90;;;;;;5004257;28;88295;-79
2023/07/27 06:52:37;;;;;;;4.80;2.80;;;17.10;99.90;;;;;;4986094;28;87652;-80
2023/07/27 06:55:04;;;;;;;4.20;2.95;;;17.20;99.90;;;;;;4988836;28;90614;-79
2023/07/27 06:57:32;;;;;;;4.15;2.55;;;17.20;99.90;;;;;;5011615;28;87719;-79
2023/07/27 06:59:57;;;;;;;3.80;2.63;;;17.30;99.90;;;;;;5007897;28;92199;-80
2023/07/27 07:02:26;;;;;;;4.00;3.13;;;17.30;99.90;;;;;;4987960;28;88731;-79
2023/07/27 07:04:52;;;;;;;4.90;3.05;;;17.40;99.90;;;;;;5021034;28;89810;-80
2023/07/27 07:07:18;;;;;;;5.38;3.15;;;17.40;99.90;;;;;;5003213;28;90537;-81
2023/07/27 07:09:44;;;;;;;5.85;2.90;;;17.40;99.90;;;;;;4986941;28;90394;-78
2023/07/27 07:12:09;;;;;;;4.90;2.88;;;17.50;99.90;;;;;;5002453;28;87888;-77
2023/07/27 07:14:35;;;;;;;5.70;2.88;;;17.50;99.90;;;;;;5002885;28;87390;-78
2023/07/27 07:17:01;;;;;;;5.70;3.33;;;17.50;99.90;;;;;;5004196;28;89015;-78
2023/07/27 07:19:27;;;;;;;6.63;3.22;;;17.50;99.90;;;;;;5002656;27;88377;-78
2023/07/27 07:21:53;;;;;;;4.70;3.28;;;17.50;99.90;;;;;;5003488;28;87799;-78
2023/07/27 07:24:19;;;;;;;3.58;3.28;;;17.50;99.90;;;;;;5006860;28;87985;-78
2023/07/27 07:26:45;;;;;;;4.13;3.47;;;17.50;99.90;;;;;;5006615;28;90631;-78
2023/07/27 07:29:11;;;;;;;4.07;3.05;;;17.50;99.90;;;;;;5001260;28;89750;-78
2023/07/27 07:31:37;;;;;;;4.80;3.03;;;17.50;99.90;;;;;;5005553;28;87985;-78
2023/07/27 07:34:03;;;;;;;4.43;2.90;;;17.50;99.90;;;;;;5006607;27;87668;-78
2023/07/27 07:36:29;;;;;;;7.18;3.30;;;17.50;99.90;;;;;;5006663;28;88661;-78
2023/07/27 07:38:55;;;;;;;5.05;3.25;;;17.50;99.90;;;;;;5004175;28;88226;-78
2023/07/27 07:41:20;;;;;;;2.67;2.42;;;17.50;99.90;;;;;;5006619;28;94570;-78
2023/07/27 07:43:46;;;;;;;4.60;3.05;;;17.60;99.90;;;;;;5005668;27;87376;-79
2023/07/27 07:46:13;;;;;;;5.88;3.28;;;17.60;99.90;;;;;;5004453;27;88711;-78
2023/07/27 07:48:39;;;;;;;6.53;3.20;;;17.70;99.90;;;;;;5005609;28;87796;-78
2023/07/27 07:51:12;;;;;;;5.20;3.20;;;17.70;99.90;;;;;;5005265;28;88115;-78
2023/07/27 07:53:38;;;;;;;;;;;17.70;99.90;;;;;;5005441;28;87914;-78
2023/07/27 07:56:04;;;;;;;5.95;3.45;;;17.70;99.90;;;;;;5006252;28;88660;-82
2023/07/27 07:58:31;;;;;;;4.60;3.13;;;17.70;99.90;;;;;;5005389;28;88387;-80
2023/07/27 08:00:56;;;;;;;7.10;3.70;;;17.80;99.90;;;;;;5003788;28;88029;-83
2023/07/27 08:03:22;;;;;;;5.35;3.05;;;17.80;99.90;;;;;;5005619;28;87705;-79
2023/07/27 08:05:48;;;;;;;3.80;2.88;;;17.70;99.90;;;;;;4988491;28;92707;-79
2023/07/27 08:08:13;;;;;;;5.18;3.22;;;17.70;99.90;;;;;;5007032;28;88463;-78
2023/07/27 08:10:39;;;;;;;4.10;2.85;;;17.70;99.90;;;;;;5005882;28;87596;-79
2023/07/27 08:13:05;;;;;;;6.95;2.88;;;17.70;99.90;;;;;;5004739;28;87566;-79
2023/07/27 08:15:30;;;;;;;3.10;2.80;;;17.70;99.90;;;;;;5005714;28;88715;-78
2023/07/27 08:17:56;;;;;;;6.15;2.65;;;17.70;99.90;;;;;;5003965;28;89323;-78
2023/07/27 08:20:22;;;;;;;3.88;2.67;;;17.70;99.90;;;;;;5001494;28;88739;-79
2023/07/27 08:22:47;;;;;;;5.57;3.30;;;17.70;99.90;;;;;;5004332;28;87854;-78
2023/07/27 08:25:14;;;;;;;4.57;2.45;;;17.80;99.90;;;;;;5003417;28;88404;-79
2023/07/27 08:27:41;;;;;;;5.10;2.90;;;17.80;99.90;;;;;;4984497;28;91470;-79
2023/07/27 08:30:07;;;;;;;4.55;3.00;;;17.80;99.90;;;;;;5005311;28;87541;-79
2023/07/27 08:32:33;;;;;;;4.47;3.00;;;17.90;99.90;;;;;;5003776;28;87047;-78
2023/07/27 08:34:59;;;;;;;4.68;2.92;;;17.90;99.90;;;;;;5001861;28;87698;-78
2023/07/27 08:37:24;;;;;;;6.55;2.92;;;17.90;99.90;;;;;;4986703;28;90584;-78
2023/07/27 08:39:50;;;;;;;8.38;3.22;;;18.00;99.90;;;;;;5002843;28;88495;-78
2023/07/27 08:42:16;;;;;;;3.97;2.63;;;18.00;99.90;;;;;;5004246;28;87785;-77
2023/07/27 08:44:43;;;;;;;4.65;2.88;;;18.10;99.90;;;;;;4988105;28;90491;-77
2023/07/27 08:47:10;;;;;;;7.47;2.58;;;18.20;99.90;;;;;;5004037;28;87622;-77
2023/07/27 08:49:40;;;;;;;5.03;2.33;;;18.20;99.90;;;;;;5004533;28;88201;-77
2023/07/27 08:52:07;;;;;;;3.17;2.00;;;18.30;99.80;;;;;;5003069;28;87892;-77
2023/07/27 08:54:32;;;;;;;4.28;2.42;;;18.30;99.40;;;;;;5004544;28;88492;-78
2023/07/27 08:56:58;;;;;;;3.33;2.05;;;18.30;99.30;;;;;;4986602;28;91178;-78
2023/07/27 08:59:24;;;;;;;3.65;2.20;;;18.30;99.20;;;;;;5005287;28;87295;-78
2023/07/27 09:01:52;;;;;;;3.90;2.20;;;18.30;99.40;;;;;;5005579;28;87589;-77
2023/07/27 09:04:18;;;;;;;2.30;2.03;;;18.30;99.40;;;;;;5005288;28;88501;-78
2023/07/27 09:06:46;;;;;;;5.75;1.98;;;18.30;99.20;;;;;;5005624;28;89195;-77
2023/07/27 09:09:28;;;;;;;3.47;2.08;;;18.20;99.50;;;;;;5007019;28;87759;-78
2023/07/27 09:11:54;;;;;;;3.95;2.00;;;18.30;99.70;;;;;;4989093;28;90356;-78
2023/07/27 09:14:21;;;;;;;2.88;2.15;;;18.30;99.70;;;;;;5006071;27;88454;-85
2023/07/27 09:16:48;;;;;;;3.13;2.35;;;18.30;99.80;;;;;;5005396;27;88675;-79
2023/07/27 09:19:17;;;;;;;3.30;2.58;;;18.30;99.90;;;;;;5005038;28;87149;-83
2023/07/27 09:21:48;;;;;;;3.05;2.30;;;18.30;99.90;;;;;;5004174;28;87125;-78
2023/07/27 09:24:16;;;;;;;4.88;2.58;;;18.20;99.90;;;;;;4994205;28;91763;-78
2023/07/27 09:26:50;;;;;;;2.90;2.22;;;18.10;99.90;;;;;;5002290;28;89118;-85
2023/07/27 09:29:25;;;;;;;3.83;2.33;;;18.10;99.90;;;;;;5008004;28;88464;-85
2023/07/27 09:31:52;;;;;;;5.40;2.50;;;18.10;99.90;;;;;;5004016;28;88349;-80
2023/07/27 09:34:19;;;;;;;4.45;2.65;;;18.10;99.90;;;;;;5004911;28;88314;-79
2023/07/27 09:36:46;;;;;;;4.15;2.55;;;18.20;99.90;;;;;;5002833;27;88400;-80
2023/07/27 09:39:14;;;;;;;3.00;1.80;;;18.20;99.90;;;;;;5005323;28;87675;-80
2023/07/27 09:41:45;;;;;;;2.13;1.80;;;18.20;99.90;;;;;;5005320;28;87424;-86
2023/07/27 09:44:18;;;;;;;5.22;2.17;;;18.20;99.90;;;;;;5006422;28;93553;-85
2023/07/27 09:46:47;;;;;;;2.70;2.35;;;18.30;99.90;;;;;;5006943;28;87545;-78
2023/07/27 09:49:15;;;;;;;3.75;2.47;;;18.30;99.90;;;;;;5004197;27;87591;-79
2023/07/27 09:51:41;;;;;;;4.95;2.30;;;18.40;99.90;;;;;;5005543;28;87505;-79
2023/07/27 09:54:06;;;;;;;3.83;2.30;;;18.40;99.90;;;;;;5003890;28;90133;-79
2023/07/27 09:56:32;;;;;;;3.40;2.20;;;18.30;99.90;;;;;;5004784;28;88839;-79
2023/07/27 09:58:59;;;;;;;2.67;2.20;;;18.30;99.90;;;;;;5006136;28;87677;-79
2023/07/27 10:01:26;;;;;;;4.72;2.30;;;18.40;99.90;;;;;;5005896;28;88025;-79
2023/07/27 10:03:57;;;;;;;4.25;2.58;;;18.50;99.90;;;;;;5004101;28;88217;-78
2023/07/27 10:06:24;;;;;;;4.18;2.42;;;18.50;99.90;;;;;;5004129;28;88622;-81
2023/07/27 10:08:50;;;;;;;2.95;2.20;;;18.50;99.90;;;;;;5004567;28;87242;-80
2023/07/27 10:11:16;;;;;;;2.80;2.22;;;18.60;99.90;;;;;;4988072;28;89970;-80
2023/07/27 10:13:43;;;;;;;2.45;1.83;;;18.60;99.90;;;;;;5004397;28;88372;-81
2023/07/27 10:16:11;;;;;;;2.90;2.50;;;18.60;99.90;;;;;;5002730;28;88624;-82
2023/07/27 10:18:42;;;;;;;2.78;2.00;;;18.60;99.90;;;;;;5016765;28;88498;-81
2023/07/27 10:21:27;;;;;;;3.63;2.33;;;18.60;99.90;;;;;;4995657;28;89436;-81
2023/07/27 10:23:55;;;;;;;3.15;1.77;;;18.60;99.90;;;;;;5002547;28;87780;-81
2023/07/27 10:26:52;;;;;;;2.15;1.42;;;18.70;99.90;;;;;;5002667;28;88219;-79
2023/07/27 10:29:21;;;;;;;1.92;1.33;;;18.80;99.90;;;;;;5018971;28;88820;-81
2023/07/27 10:32:07;;;;;;;1.65;1.55;;;18.70;99.90;;;;;;5005455;27;87414;-80
2023/07/27 10:34:34;;;;;;;2.25;0.82;;;18.80;99.90;;;;;;5004157;28;88877;-82
2023/07/27 10:37:02;;;;;;;0.68;0.50;;;18.90;99.90;;;;;;5006297;28;87831;-81
2023/07/27 10:39:30;;;;;;;0.40;0.40;;;18.90;99.80;;;;;;5007178;28;87293;-83
2023/07/27 10:42:03;;;;;;;1.00;0.43;;;19.00;99.80;;;;;;5006713;28;91819;-84
2023/07/27 10:44:49;;;;;;;0.60;0.33;;;19.00;99.20;;;;;;5003742;28;89778;-84
2023/07/27 10:47:22;;;;;;;0.45;0.30;;;19.00;99.40;;;;;;5007567;28;89801;-84
2023/07/27 10:49:50;;;;;;;0.30;0.30;;;19.00;99.50;;;;;;5005363;28;87476;-83
2023/07/27 10:52:21;;;;;;;0.30;0.30;;;18.90;99.30;;;;;;5006186;28;94316;-85
2023/07/27 10:54:47;;;;;;;0.47;0.22;;;18.80;99.20;;;;;;5007180;28;88540;-84
2023/07/27 10:57:15;;;;;;;0.43;0.40;;;18.80;99.70;;;;;;4994806;28;91154;-84
2023/07/27 10:59:44;;;;;;;0.40;0.40;;;18.80;99.90;;;;;;5003862;28;87399;-84
2023/07/27 11:02:21;;;;;;;0.40;0.40;;;18.80;99.90;;;;;;5021811;28;90798;-83
2023/07/27 11:04:54;;;;;;;0.90;0.50;;;18.90;99.40;;;;;;5005213;28;89264;-82
2023/07/27 11:07:29;;;;;;;1.20;0.47;;;18.80;99.40;;;;;;5020691;28;90178;-82
2023/07/27 11:09:55;;;;;;;0.40;0.38;;;18.80;98.90;;;;;;5018334;28;88627;-82
2023/07/27 11:12:20;;;;;;;3.22;0.30;;;18.80;99.30;;;;;;4986859;28;88558;-82
2023/07/27 11:14:46;;;;;;;0.60;0.40;;;18.90;99.30;;;;;;5003366;28;87976;-81
2023/07/27 11:17:12;;;;;;;0.40;0.30;;;18.80;99.20;;;;;;5004794;28;87666;-80
2023/07/27 11:19:38;;;;;;;0.32;0.30;;;18.90;99.40;;;;;;4985663;28;87750;-80
2023/07/27 11:22:04;;;;;;;0.40;0.40;;;18.90;99.30;;;;;;5004170;28;87503;-79
2023/07/27 11:24:31;;;;;;;1.38;0.50;;;18.90;99.40;;;;;;5005038;28;88553;-80
2023/07/27 11:26:57;;;;;;;0.63;0.32;;;18.90;99.60;;;;;;4985735;28;92853;-82
2023/07/27 11:29:22;;;;;;;0.20;0.20;;;19.00;99.80;;;;;;5004771;28;87286;-82
2023/07/27 11:31:57;;;;;;;1.25;0.40;;;19.00;99.30;;;;;;4985582;28;90601;-81
2023/07/27 11:34:24;;;;;;;0.98;0.30;;;19.00;99.50;;;;;;5005550;28;89533;-82
2023/07/27 11:36:52;;;;;;;0.30;0.30;;;19.10;99.90;;;;;;4985123;28;89748;-82
2023/07/27 11:39:18;;;;;;;1.23;0.40;;;19.10;99.60;;;;;;4995195;28;87655;-81
2023/07/27 11:41:44;;;;;;;1.08;0.50;;;19.10;99.60;;;;;;5019187;28;89028;-82
2023/07/27 11:44:09;;;;;;;0.43;0.43;;;19.10;99.60;;;;;;4984989;28;91033;-82
2023/07/27 11:46:46;;;;;;;1.35;0.40;;;19.10;99.80;;;;;;5002573;28;87577;-82
2023/07/27 11:49:13;;;;;;;0.32;0.32;;;19.00;99.60;;;;;;5005316;28;88099;-83
2023/07/27 11:51:39;;;;;;;1.20;0.30;;;19.00;99.90;;;;;;5003753;28;87422;-82
2023/07/27 11:54:05;;;;;;;0.40;0.30;;;19.00;99.90;;;;;;4993869;28;91062;-79
2023/07/27 11:56:35;;;;;;;0.20;0.20;;;19.00;99.90;;;;;;4985491;28;88869;-80
2023/07/27 11:59:01;;;;;;;0.43;0.30;;;19.00;99.90;;;;;;4997281;28;88445;-77
2023/07/27 12:01:27;;;;;;;0.65;0.40;;;19.00;99.90;;;;;;4997816;28;87730;-78
2023/07/27 12:03:53;;;;;;;0.30;0.30;;;19.00;99.90;;;;;;4979124;28;91348;-77
2023/07/27 12:06:25;;;;;;;1.17;0.28;;;18.90;99.90;;;;;;4999750;28;88420;-78
2023/07/27 12:08:51;;;;;;;0.30;0.30;;;18.80;99.90;;;;;;4981333;28;87732;-77
2023/07/27 12:11:23;;;;;;;1.08;0.20;;;18.80;99.90;;;;;;5004897;28;87335;-78
2023/07/27 12:13:50;;;;;;;1.75;0.30;;;18.90;99.90;;;;;;4987222;28;90504;-77
2023/07/27 12:16:17;;;;;;;2.90;0.30;;;18.90;99.90;;;;;;5003844;27;88831;-78
2023/07/27 12:18:43;;;;;;;0.50;0.20;;;19.00;99.90;;;;;;5003864;28;87806;-77
2023/07/27 12:21:13;;;;;;;3.10;0.30;;;19.00;99.90;;;;;;5005950;28;88140;-78
2023/07/27 12:23:39;;;;;;;0.45;0.40;;;19.00;99.90;;;;;;5000056;27;92821;-77
2023/07/27 12:26:05;;;;;;;1.80;0.30;;;19.00;99.40;;;;;;5004760;27;88224;-77
2023/07/27 12:28:31;;;;;;;1.15;0.30;;;19.10;99.80;;;;;;5005092;28;88174;-77
2023/07/27 12:30:57;;;;;;;3.00;0.20;;;19.10;99.50;;;;;;5004852;28;87718;-77
2023/07/27 12:33:26;;;;;;;0.93;0.30;;;19.20;99.90;;;;;;5004008;28;89080;-77
2023/07/27 12:35:52;;;;;;;0.75;0.20;;;19.30;99.80;;;;;;5004236;28;88480;-77
2023/07/27 12:38:19;;;;;;;0.75;0.30;;;19.30;99.40;;;;;;5018642;28;87135;-77
2023/07/27 12:40:45;;;;;;;1.65;0.30;;;19.40;99.00;;;;;;5005899;27;87369;-77
2023/07/27 12:43:11;;;;;;;0.98;0.43;;;19.50;98.80;;;;;;5006664;28;88858;-78
2023/07/27 12:45:37;;;;;;;3.53;0.30;;;19.50;98.40;;;;;;5005098;28;88279;-77
2023/07/27 12:48:03;;;;;;;2.30;0.30;;;19.50;98.70;;;;;;5004763;28;88546;-77